sensor_id;sensor_type;location;lat;lon;timestamp;pressure;altitude;pressure_sealevel;temperature;humidity
13434;BME280;6789;47.678;9.158;2024-01-27T00:00:45;53357.28;;;-138.23;83.80
13434;BME280;6789;47.678;9.158;2024-01-27T00:05:37;53365.31;;;-138.23;84.46
13434;BME280;6789;47.678;9.158;2024-01-27T00:10:29;53327.16;;;-138.23;85.40
13434;BME280;6789;47.678;9.158;2024-01-27T00:15:21;53357.28;;;-138.23;83.97
13434;BME280;6789;47.678;9.158;2024-01-27T00:20:13;53367.31;;;-138.23;83.21
13434;BME280;6789;47.678;9.158;2024-01-27T00:25:05;53319.13;;;-138.23;84.49
13434;BME280;6789;47.678;9.158;2024-01-27T00:29:57;53375.34;;;-138.23;86.58
13434;BME280;6789;47.678;9.158;2024-01-27T00:34:49;53361.31;;;-138.23;87.08
13434;BME280;6789;47.678;9.158;2024-01-27T00:39:41;53399.44;;;-138.23;83.68
13434;BME280;6789;47.678;9.158;2024-01-27T00:44:33;53359.28;;;-138.23;82.76
13434;BME280;6789;47.678;9.158;2024-01-27T00:49:25;53373.34;;;-138.23;82.18
13434;BME280;6789;47.678;9.158;2024-01-27T00:54:17;53379.38;;;-138.23;82.74
13434;BME280;6789;47.678;9.158;2024-01-27T00:59:09;53381.38;;;-138.23;83.17
13434;BME280;6789;47.678;9.158;2024-01-27T01:04:01;53313.09;;;-138.23;84.80
13434;BME280;6789;47.678;9.158;2024-01-27T01:08:53;53415.53;;;-138.23;83.02
13434;BME280;6789;47.678;9.158;2024-01-27T01:13:45;53327.16;;;-138.23;82.66
13434;BME280;6789;47.678;9.158;2024-01-27T01:29:42;53373.34;;;-138.23;82.66
13434;BME280;6789;47.678;9.158;2024-01-27T01:34:50;53381.38;;;-138.23;83.51
13434;BME280;6789;47.678;9.158;2024-01-27T01:39:42;53383.38;;;-138.23;83.26
13434;BME280;6789;47.678;9.158;2024-01-27T01:44:34;53379.38;;;-138.23;83.13
13434;BME280;6789;47.678;9.158;2024-01-27T01:49:26;53379.38;;;-138.23;82.34
13434;BME280;6789;47.678;9.158;2024-01-27T01:54:20;53353.25;;;-138.23;82.58
13434;BME280;6789;47.678;9.158;2024-01-27T01:59:14;53409.50;;;-138.23;83.22
13434;BME280;6789;47.678;9.158;2024-01-27T02:04:05;53389.41;;;-138.23;83.03
13434;BME280;6789;47.678;9.158;2024-01-27T02:08:57;53397.44;;;-138.23;83.63
13434;BME280;6789;47.678;9.158;2024-01-27T02:13:49;53363.31;;;-138.23;83.78
13434;BME280;6789;47.678;9.158;2024-01-27T02:18:41;53401.47;;;-138.23;85.24
13434;BME280;6789;47.678;9.158;2024-01-27T02:23:33;53411.50;;;-138.23;86.13
13434;BME280;6789;47.678;9.158;2024-01-27T02:28:25;53359.28;;;-138.23;87.02
13434;BME280;6789;47.678;9.158;2024-01-27T02:33:17;53411.50;;;-138.23;88.36
13434;BME280;6789;47.678;9.158;2024-01-27T02:38:09;53391.41;;;-138.23;90.44
13434;BME280;6789;47.678;9.158;2024-01-27T02:43:01;53395.44;;;-138.23;91.47
13434;BME280;6789;47.678;9.158;2024-01-27T02:47:52;53403.47;;;-138.23;92.48
13434;BME280;6789;47.678;9.158;2024-01-27T02:52:44;53385.41;;;-138.23;93.62
13434;BME280;6789;47.678;9.158;2024-01-27T02:57:36;53393.44;;;-138.23;94.23
13434;BME280;6789;47.678;9.158;2024-01-27T03:02:28;53407.50;;;-138.23;94.53
13434;BME280;6789;47.678;9.158;2024-01-27T03:07:20;53403.47;;;-138.23;94.89
13434;BME280;6789;47.678;9.158;2024-01-27T03:12:11;53453.66;;;-138.23;95.44
13434;BME280;6789;47.678;9.158;2024-01-27T03:17:04;53395.44;;;-138.23;95.84
13434;BME280;6789;47.678;9.158;2024-01-27T03:21:55;53389.41;;;-138.23;96.29
13434;BME280;6789;47.678;9.158;2024-01-27T03:26:47;53441.63;;;-138.23;97.03
13434;BME280;6789;47.678;9.158;2024-01-27T03:31:39;53437.59;;;-138.23;97.50
13434;BME280;6789;47.678;9.158;2024-01-27T03:36:31;53433.59;;;-138.23;97.86
13434;BME280;6789;47.678;9.158;2024-01-27T03:41:23;53441.63;;;-138.23;98.52
13434;BME280;6789;47.678;9.158;2024-01-27T03:46:15;53441.63;;;-138.23;99.24
13434;BME280;6789;47.678;9.158;2024-01-27T03:51:06;53433.59;;;-138.23;99.27
13434;BME280;6789;47.678;9.158;2024-01-27T03:55:58;53403.47;;;-138.23;99.56
13434;BME280;6789;47.678;9.158;2024-01-27T04:00:53;53413.50;;;-138.23;96.80
13434;BME280;6789;47.678;9.158;2024-01-27T04:05:45;53429.56;;;-138.23;96.38
13434;BME280;6789;47.678;9.158;2024-01-27T04:10:37;53425.56;;;-138.23;95.95
13434;BME280;6789;47.678;9.158;2024-01-27T04:15:29;53417.53;;;-138.23;96.44
13434;BME280;6789;47.678;9.158;2024-01-27T04:20:21;53441.63;;;-138.23;96.27
13434;BME280;6789;47.678;9.158;2024-01-27T04:25:13;53413.50;;;-138.23;97.21
13434;BME280;6789;47.678;9.158;2024-01-27T04:30:07;53459.69;;;-138.23;98.18
13434;BME280;6789;47.678;9.158;2024-01-27T04:34:59;53461.69;;;-138.23;99.11
13434;BME280;6789;47.678;9.158;2024-01-27T04:39:50;53421.53;;;-138.23;100.00
13434;BME280;6789;47.678;9.158;2024-01-27T04:44:42;53439.63;;;-138.23;100.00
13434;BME280;6789;47.678;9.158;2024-01-27T04:49:34;53445.63;;;-138.23;99.74
13434;BME280;6789;47.678;9.158;2024-01-27T04:54:26;53425.56;;;-138.23;100.00
13434;BME280;6789;47.678;9.158;2024-01-27T05:04:25;53433.59;;;-138.23;100.00
13434;BME280;6789;47.678;9.158;2024-01-27T05:09:18;53439.63;;;-138.23;100.00
13434;BME280;6789;47.678;9.158;2024-01-27T05:14:10;53421.53;;;-138.23;100.00
13434;BME280;6789;47.678;9.158;2024-01-27T05:19:02;53469.75;;;-138.23;100.00
13434;BME280;6789;47.678;9.158;2024-01-27T05:23:54;53455.69;;;-138.23;100.00
13434;BME280;6789;47.678;9.158;2024-01-27T05:28:46;53481.78;;;-138.23;100.00
13434;BME280;6789;47.678;9.158;2024-01-27T05:33:38;53465.72;;;-138.23;100.00
13434;BME280;6789;47.678;9.158;2024-01-27T05:38:31;53443.63;;;-138.23;100.00
13434;BME280;6789;47.678;9.158;2024-01-27T05:43:23;53431.59;;;-138.23;100.00
13434;BME280;6789;47.678;9.158;2024-01-27T05:48:15;53467.72;;;-138.23;100.00
13434;BME280;6789;47.678;9.158;2024-01-27T05:53:09;53451.66;;;-138.23;100.00
13434;BME280;6789;47.678;9.158;2024-01-27T05:58:00;53427.56;;;-138.23;100.00
13434;BME280;6789;47.678;9.158;2024-01-27T06:02:53;53467.72;;;-138.23;100.00
13434;BME280;6789;47.678;9.158;2024-01-27T06:07:44;53501.88;;;-138.23;100.00
13434;BME280;6789;47.678;9.158;2024-01-27T06:12:39;53449.66;;;-138.23;100.00
13434;BME280;6789;47.678;9.158;2024-01-27T06:17:31;53431.59;;;-138.23;100.00
13434;BME280;6789;47.678;9.158;2024-01-27T06:22:23;53467.72;;;-138.23;100.00
13434;BME280;6789;47.678;9.158;2024-01-27T06:27:15;53465.72;;;-138.23;100.00
13434;BME280;6789;47.678;9.158;2024-01-27T06:32:07;53439.63;;;-138.23;100.00
13434;BME280;6789;47.678;9.158;2024-01-27T06:37:02;53457.69;;;-138.23;100.00
13434;BME280;6789;47.678;9.158;2024-01-27T06:41:54;53449.66;;;-138.23;100.00
13434;BME280;6789;47.678;9.158;2024-01-27T06:46:46;53473.75;;;-138.23;100.00
13434;BME280;6789;47.678;9.158;2024-01-27T06:51:41;53469.75;;;-138.23;99.76
13434;BME280;6789;47.678;9.158;2024-01-27T06:56:33;53457.69;;;-138.23;100.00
13434;BME280;6789;47.678;9.158;2024-01-27T07:01:24;53457.69;;;-138.23;100.00
13434;BME280;6789;47.678;9.158;2024-01-27T07:06:16;53473.75;;;-138.23;100.00
13434;BME280;6789;47.678;9.158;2024-01-27T07:11:08;53473.75;;;-138.23;100.00
13434;BME280;6789;47.678;9.158;2024-01-27T07:16:00;53473.75;;;-138.23;100.00
13434;BME280;6789;47.678;9.158;2024-01-27T07:20:52;53459.69;;;-138.23;100.00
13434;BME280;6789;47.678;9.158;2024-01-27T07:25:44;53467.72;;;-138.23;100.00
13434;BME280;6789;47.678;9.158;2024-01-27T07:30:36;53445.63;;;-138.23;99.87
13434;BME280;6789;47.678;9.158;2024-01-27T07:35:28;53485.81;;;-138.23;100.00
13434;BME280;6789;47.678;9.158;2024-01-27T07:40:20;53467.72;;;-138.23;100.00
13434;BME280;6789;47.678;9.158;2024-01-27T07:45:12;53475.75;;;-138.23;100.00
13434;BME280;6789;47.678;9.158;2024-01-27T07:50:04;53465.72;;;-138.23;100.00
13434;BME280;6789;47.678;9.158;2024-01-27T07:54:56;53497.84;;;-138.23;99.28
13434;BME280;6789;47.678;9.158;2024-01-27T07:59:48;53463.72;;;-138.23;98.52
13434;BME280;6789;47.678;9.158;2024-01-27T08:04:39;53473.75;;;-138.23;99.12
13434;BME280;6789;47.678;9.158;2024-01-27T08:09:33;53459.69;;;-138.23;98.69
13434;BME280;6789;47.678;9.158;2024-01-27T08:14:25;53469.75;;;-138.23;98.40
13434;BME280;6789;47.678;9.158;2024-01-27T08:19:17;53463.72;;;-138.23;99.33
13434;BME280;6789;47.678;9.158;2024-01-27T08:24:13;53465.72;;;-138.23;98.89
13434;BME280;6789;47.678;9.158;2024-01-27T08:29:05;53423.56;;;-138.23;98.86
13434;BME280;6789;47.678;9.158;2024-01-27T08:33:57;53449.66;;;-138.23;98.01
13434;BME280;6789;47.678;9.158;2024-01-27T08:38:49;53485.81;;;-138.23;96.12
13434;BME280;6789;47.678;9.158;2024-01-27T08:43:41;53429.56;;;-138.23;96.08
13434;BME280;6789;47.678;9.158;2024-01-27T08:48:33;53453.66;;;-138.23;96.51
13434;BME280;6789;47.678;9.158;2024-01-27T08:53:25;53453.66;;;-138.23;96.11
13434;BME280;6789;47.678;9.158;2024-01-27T08:58:17;53455.69;;;-138.23;93.48
13434;BME280;6789;47.678;9.158;2024-01-27T09:03:09;53445.63;;;-138.23;92.88
13434;BME280;6789;47.678;9.158;2024-01-27T09:08:01;53449.66;;;-138.23;92.29
13434;BME280;6789;47.678;9.158;2024-01-27T09:12:52;53439.63;;;-138.23;89.90
13434;BME280;6789;47.678;9.158;2024-01-27T09:17:44;53413.50;;;-138.23;90.09
13434;BME280;6789;47.678;9.158;2024-01-27T09:22:36;53449.66;;;-138.23;91.25
13434;BME280;6789;47.678;9.158;2024-01-27T09:27:27;53463.72;;;-138.23;90.21
13434;BME280;6789;47.678;9.158;2024-01-27T09:32:19;53429.56;;;-138.23;89.96
13434;BME280;6789;47.678;9.158;2024-01-27T09:37:11;53465.72;;;-138.23;90.29
13434;BME280;6789;47.678;9.158;2024-01-27T09:42:07;53451.66;;;-138.23;89.71
13434;BME280;6789;47.678;9.158;2024-01-27T09:46:59;53399.44;;;-138.23;87.26
13434;BME280;6789;47.678;9.158;2024-01-27T09:51:51;53415.53;;;-138.23;86.41
13434;BME280;6789;47.678;9.158;2024-01-27T09:56:45;53411.50;;;-138.23;85.56
13434;BME280;6789;47.678;9.158;2024-01-27T10:01:38;53415.53;;;-138.23;84.87
13434;BME280;6789;47.678;9.158;2024-01-27T10:06:30;53393.44;;;-138.23;83.91
13434;BME280;6789;47.678;9.158;2024-01-27T10:11:23;53385.41;;;-138.23;82.93
13434;BME280;6789;47.678;9.158;2024-01-27T10:16:15;53433.59;;;-138.23;83.22
13434;BME280;6789;47.678;9.158;2024-01-27T10:21:15;53439.63;;;-138.23;83.34
13434;BME280;6789;47.678;9.158;2024-01-27T10:26:11;53451.66;;;-138.23;83.32
13434;BME280;6789;47.678;9.158;2024-01-27T10:31:13;53381.38;;;-138.23;82.32
13434;BME280;6789;47.678;9.158;2024-01-27T10:36:05;53435.59;;;-138.23;82.28
13434;BME280;6789;47.678;9.158;2024-01-27T10:40:57;53405.47;;;-138.23;81.57
13434;BME280;6789;47.678;9.158;2024-01-27T10:45:49;53421.53;;;-138.23;80.68
13434;BME280;6789;47.678;9.158;2024-01-27T10:50:42;53453.66;;;-138.23;79.41
13434;BME280;6789;47.678;9.158;2024-01-27T10:55:37;53397.44;;;-138.23;76.88
13434;BME280;6789;47.678;9.158;2024-01-27T11:00:32;53383.38;;;-138.23;75.16
13434;BME280;6789;47.678;9.158;2024-01-27T11:05:27;53371.34;;;-138.23;73.81
13434;BME280;6789;47.678;9.158;2024-01-27T11:10:19;53353.25;;;-138.23;73.59
13434;BME280;6789;47.678;9.158;2024-01-27T11:15:11;53401.47;;;-138.23;73.24
13434;BME280;6789;47.678;9.158;2024-01-27T11:20:04;53375.34;;;-138.23;71.81
13434;BME280;6789;47.678;9.158;2024-01-27T11:25:14;53385.41;;;-138.23;70.94
13434;BME280;6789;47.678;9.158;2024-01-27T11:30:30;53369.34;;;-138.23;69.74
13434;BME280;6789;47.678;9.158;2024-01-27T11:35:25;53393.44;;;-138.23;69.12
13434;BME280;6789;47.678;9.158;2024-01-27T11:40:18;53325.16;;;-138.23;67.20
13434;BME280;6789;47.678;9.158;2024-01-27T11:45:10;53337.19;;;-138.23;65.64
13434;BME280;6789;47.678;9.158;2024-01-27T11:50:02;53355.28;;;-138.23;65.20
13434;BME280;6789;47.678;9.158;2024-01-27T11:55:01;53351.25;;;-138.23;64.54
13434;BME280;6789;47.678;9.158;2024-01-27T11:59:53;53339.22;;;-138.23;63.44
13434;BME280;6789;47.678;9.158;2024-01-27T12:04:47;53355.28;;;-138.23;63.08
13434;BME280;6789;47.678;9.158;2024-01-27T12:09:39;53381.38;;;-138.23;63.63
13434;BME280;6789;47.678;9.158;2024-01-27T12:14:44;53351.25;;;-138.23;63.20
13434;BME280;6789;47.678;9.158;2024-01-27T12:19:37;53329.16;;;-138.23;62.57
13434;BME280;6789;47.678;9.158;2024-01-27T12:24:29;53361.31;;;-138.23;62.13
13434;BME280;6789;47.678;9.158;2024-01-27T12:29:21;53317.13;;;-138.23;62.35
13434;BME280;6789;47.678;9.158;2024-01-27T12:34:13;53319.13;;;-138.23;62.07
13434;BME280;6789;47.678;9.158;2024-01-27T12:39:05;53357.28;;;-138.23;61.87
13434;BME280;6789;47.678;9.158;2024-01-27T12:43:58;53305.06;;;-138.23;61.04
13434;BME280;6789;47.678;9.158;2024-01-27T12:48:50;53309.09;;;-138.23;60.78
13434;BME280;6789;47.678;9.158;2024-01-27T12:53:43;53329.16;;;-138.23;60.99
13434;BME280;6789;47.678;9.158;2024-01-27T12:58:36;53321.13;;;-138.23;60.42
13434;BME280;6789;47.678;9.158;2024-01-27T13:03:28;53321.13;;;-138.23;58.93
13434;BME280;6789;47.678;9.158;2024-01-27T13:08:19;53325.16;;;-138.23;59.93
13434;BME280;6789;47.678;9.158;2024-01-27T13:13:14;53317.13;;;-138.23;58.06
13434;BME280;6789;47.678;9.158;2024-01-27T13:18:06;53311.09;;;-138.23;59.00
13434;BME280;6789;47.678;9.158;2024-01-27T13:22:59;53313.09;;;-138.23;58.61
13434;BME280;6789;47.678;9.158;2024-01-27T13:27:51;53317.13;;;-138.23;58.40
13434;BME280;6789;47.678;9.158;2024-01-27T13:32:43;53299.06;;;-138.23;59.55
13434;BME280;6789;47.678;9.158;2024-01-27T13:37:36;53291.03;;;-138.23;59.64
13434;BME280;6789;47.678;9.158;2024-01-27T13:42:28;53331.19;;;-138.23;59.11
13434;BME280;6789;47.678;9.158;2024-01-27T13:47:19;53317.13;;;-138.23;58.87
13434;BME280;6789;47.678;9.158;2024-01-27T13:52:11;53341.22;;;-138.23;59.40
13434;BME280;6789;47.678;9.158;2024-01-27T13:57:03;53327.16;;;-138.23;59.30
13434;BME280;6789;47.678;9.158;2024-01-27T14:01:55;53311.09;;;-138.23;59.81
13434;BME280;6789;47.678;9.158;2024-01-27T14:06:52;53309.09;;;-138.23;59.57
13434;BME280;6789;47.678;9.158;2024-01-27T14:11:47;53305.06;;;-138.23;60.35
13434;BME280;6789;47.678;9.158;2024-01-27T14:16:39;53301.06;;;-138.23;60.54
13434;BME280;6789;47.678;9.158;2024-01-27T14:21:32;53311.09;;;-138.23;60.99
13434;BME280;6789;47.678;9.158;2024-01-27T14:26:24;53327.16;;;-138.23;60.86
13434;BME280;6789;47.678;9.158;2024-01-27T14:31:16;53317.13;;;-138.23;60.33
13434;BME280;6789;47.678;9.158;2024-01-27T14:36:08;53315.13;;;-138.23;60.20
13434;BME280;6789;47.678;9.158;2024-01-27T14:41:00;53278.97;;;-138.23;60.56
13434;BME280;6789;47.678;9.158;2024-01-27T14:45:51;53313.09;;;-138.23;60.36
13434;BME280;6789;47.678;9.158;2024-01-27T14:50:43;53327.16;;;-138.23;60.85
13434;BME280;6789;47.678;9.158;2024-01-27T14:55:35;53311.09;;;-138.23;60.41
13434;BME280;6789;47.678;9.158;2024-01-27T15:00:27;53287.00;;;-138.23;60.67
13434;BME280;6789;47.678;9.158;2024-01-27T15:05:19;53301.06;;;-138.23;60.66
13434;BME280;6789;47.678;9.158;2024-01-27T15:10:10;53313.09;;;-138.23;60.72
13434;BME280;6789;47.678;9.158;2024-01-27T15:15:04;53353.25;;;-138.23;60.97
13434;BME280;6789;47.678;9.158;2024-01-27T15:19:56;53331.19;;;-138.23;60.50
13434;BME280;6789;47.678;9.158;2024-01-27T15:24:48;53303.06;;;-138.23;60.39
13434;BME280;6789;47.678;9.158;2024-01-27T15:29:40;53357.28;;;-138.23;60.80
13434;BME280;6789;47.678;9.158;2024-01-27T15:34:32;53343.22;;;-138.23;61.32
13434;BME280;6789;47.678;9.158;2024-01-27T15:39:24;53299.06;;;-138.23;61.23
13434;BME280;6789;47.678;9.158;2024-01-27T15:44:15;53333.19;;;-138.23;61.91
13434;BME280;6789;47.678;9.158;2024-01-27T15:49:07;53297.03;;;-138.23;61.63
13434;BME280;6789;47.678;9.158;2024-01-27T15:53:59;53289.00;;;-138.23;62.28
13434;BME280;6789;47.678;9.158;2024-01-27T15:58:51;53341.22;;;-138.23;63.23
13434;BME280;6789;47.678;9.158;2024-01-27T16:03:43;53355.28;;;-138.23;63.50
13434;BME280;6789;47.678;9.158;2024-01-27T16:08:34;53321.13;;;-138.23;64.11
13434;BME280;6789;47.678;9.158;2024-01-27T16:13:26;53333.19;;;-138.23;64.81
13434;BME280;6789;47.678;9.158;2024-01-27T16:18:18;53361.31;;;-138.23;65.88
13434;BME280;6789;47.678;9.158;2024-01-27T16:23:10;53345.22;;;-138.23;66.62
13434;BME280;6789;47.678;9.158;2024-01-27T16:28:02;53343.22;;;-138.23;66.96
13434;BME280;6789;47.678;9.158;2024-01-27T16:32:54;53381.38;;;-138.23;68.03
13434;BME280;6789;47.678;9.158;2024-01-27T16:37:46;53373.34;;;-138.23;69.53
13434;BME280;6789;47.678;9.158;2024-01-27T16:42:37;53381.38;;;-138.23;71.01
13434;BME280;6789;47.678;9.158;2024-01-27T16:47:29;53343.22;;;-138.23;71.41
13434;BME280;6789;47.678;9.158;2024-01-27T16:52:21;53377.38;;;-138.23;72.23
13434;BME280;6789;47.678;9.158;2024-01-27T16:57:13;53371.34;;;-138.23;72.53
13434;BME280;6789;47.678;9.158;2024-01-27T17:02:05;53369.34;;;-138.23;73.19
13434;BME280;6789;47.678;9.158;2024-01-27T17:06:58;53389.41;;;-138.23;73.52
13434;BME280;6789;47.678;9.158;2024-01-27T17:11:49;53395.44;;;-138.23;74.23
13434;BME280;6789;47.678;9.158;2024-01-27T17:16:41;53379.38;;;-138.23;74.88
13434;BME280;6789;47.678;9.158;2024-01-27T17:27:00;53389.41;;;-138.23;77.04
13434;BME280;6789;47.678;9.158;2024-01-27T17:37:18;53383.38;;;-138.23;79.00
13434;BME280;6789;47.678;9.158;2024-01-27T17:42:10;53403.47;;;-138.23;80.03
13434;BME280;6789;47.678;9.158;2024-01-27T17:47:03;53395.44;;;-138.23;80.38
13434;BME280;6789;47.678;9.158;2024-01-27T17:51:55;53385.41;;;-138.23;81.45
13434;BME280;6789;47.678;9.158;2024-01-27T17:56:47;53417.53;;;-138.23;82.57
13434;BME280;6789;47.678;9.158;2024-01-27T18:01:41;53409.50;;;-138.23;81.69
13434;BME280;6789;47.678;9.158;2024-01-27T18:06:32;53391.41;;;-138.23;78.99
13434;BME280;6789;47.678;9.158;2024-01-27T18:11:24;53357.28;;;-138.23;78.07
13434;BME280;6789;47.678;9.158;2024-01-27T18:16:16;53343.22;;;-138.23;76.43
13434;BME280;6789;47.678;9.158;2024-01-27T18:21:08;53393.44;;;-138.23;75.65
13434;BME280;6789;47.678;9.158;2024-01-27T18:26:00;53397.44;;;-138.23;74.65
13434;BME280;6789;47.678;9.158;2024-01-27T18:30:51;53397.44;;;-138.23;74.38
13434;BME280;6789;47.678;9.158;2024-01-27T18:35:43;53373.34;;;-138.23;76.36
13434;BME280;6789;47.678;9.158;2024-01-27T18:40:35;53399.44;;;-138.23;78.17
13434;BME280;6789;47.678;9.158;2024-01-27T18:45:46;53399.44;;;-138.23;80.03
13434;BME280;6789;47.678;9.158;2024-01-27T18:50:52;53453.66;;;-138.23;81.72
13434;BME280;6789;47.678;9.158;2024-01-27T18:55:44;53393.44;;;-138.23;83.00
13434;BME280;6789;47.678;9.158;2024-01-27T19:00:37;53465.72;;;-138.23;83.97
13434;BME280;6789;47.678;9.158;2024-01-27T19:05:29;53427.56;;;-138.23;84.24
13434;BME280;6789;47.678;9.158;2024-01-27T19:10:22;53385.41;;;-138.23;84.69
13434;BME280;6789;47.678;9.158;2024-01-27T19:15:14;53423.56;;;-138.23;85.45
13434;BME280;6789;47.678;9.158;2024-01-27T19:20:07;53427.56;;;-138.23;85.76
13434;BME280;6789;47.678;9.158;2024-01-27T19:24:59;53409.50;;;-138.23;86.55
13434;BME280;6789;47.678;9.158;2024-01-27T19:29:51;53419.53;;;-138.23;87.06
13434;BME280;6789;47.678;9.158;2024-01-27T19:34:43;53381.38;;;-138.23;87.46
13434;BME280;6789;47.678;9.158;2024-01-27T19:39:35;53411.50;;;-138.23;87.90
13434;BME280;6789;47.678;9.158;2024-01-27T19:44:27;53439.63;;;-138.23;88.24
13434;BME280;6789;47.678;9.158;2024-01-27T19:49:21;53445.63;;;-138.23;88.68
13434;BME280;6789;47.678;9.158;2024-01-27T19:54:13;53409.50;;;-138.23;88.60
13434;BME280;6789;47.678;9.158;2024-01-27T19:59:05;53453.66;;;-138.23;88.00
13434;BME280;6789;47.678;9.158;2024-01-27T20:03:56;53465.72;;;-138.23;87.08
13434;BME280;6789;47.678;9.158;2024-01-27T20:08:48;53431.59;;;-138.23;86.69
13434;BME280;6789;47.678;9.158;2024-01-27T20:13:40;53405.47;;;-138.23;86.68
13434;BME280;6789;47.678;9.158;2024-01-27T20:18:32;53419.53;;;-138.23;86.87
13434;BME280;6789;47.678;9.158;2024-01-27T20:23:24;53479.78;;;-138.23;86.92
13434;BME280;6789;47.678;9.158;2024-01-27T20:28:15;53411.50;;;-138.23;87.13
13434;BME280;6789;47.678;9.158;2024-01-27T20:33:07;53445.63;;;-138.23;87.19
13434;BME280;6789;47.678;9.158;2024-01-27T20:37:59;53469.75;;;-138.23;88.27
13434;BME280;6789;47.678;9.158;2024-01-27T20:42:51;53433.59;;;-138.23;89.38
13434;BME280;6789;47.678;9.158;2024-01-27T20:47:43;53451.66;;;-138.23;90.81
13434;BME280;6789;47.678;9.158;2024-01-27T20:52:36;53409.50;;;-138.23;90.94
13434;BME280;6789;47.678;9.158;2024-01-27T20:57:28;53413.50;;;-138.23;90.77
13434;BME280;6789;47.678;9.158;2024-01-27T21:02:20;53425.56;;;-138.23;90.87
13434;BME280;6789;47.678;9.158;2024-01-27T21:07:12;53421.53;;;-138.23;90.69
13434;BME280;6789;47.678;9.158;2024-01-27T21:12:08;53429.56;;;-138.23;91.15
13434;BME280;6789;47.678;9.158;2024-01-27T21:16:59;53453.66;;;-138.23;91.34
13434;BME280;6789;47.678;9.158;2024-01-27T21:21:51;53415.53;;;-138.23;91.61
13434;BME280;6789;47.678;9.158;2024-01-27T21:26:43;53429.56;;;-138.23;91.78
13434;BME280;6789;47.678;9.158;2024-01-27T21:31:36;53457.69;;;-138.23;91.31
13434;BME280;6789;47.678;9.158;2024-01-27T21:36:27;53447.66;;;-138.23;91.14
13434;BME280;6789;47.678;9.158;2024-01-27T21:41:19;53433.59;;;-138.23;90.77
13434;BME280;6789;47.678;9.158;2024-01-27T21:46:11;53445.63;;;-138.23;90.25
13434;BME280;6789;47.678;9.158;2024-01-27T21:51:04;53427.56;;;-138.23;89.97
13434;BME280;6789;47.678;9.158;2024-01-27T21:55:56;53453.66;;;-138.23;89.53
13434;BME280;6789;47.678;9.158;2024-01-27T22:00:47;53449.66;;;-138.23;89.78
13434;BME280;6789;47.678;9.158;2024-01-27T22:05:40;53465.72;;;-138.23;90.13
13434;BME280;6789;47.678;9.158;2024-01-27T22:10:32;53441.63;;;-138.23;90.23
13434;BME280;6789;47.678;9.158;2024-01-27T22:15:24;53453.66;;;-138.23;89.71
13434;BME280;6789;47.678;9.158;2024-01-27T22:20:16;53441.63;;;-138.23;90.19
13434;BME280;6789;47.678;9.158;2024-01-27T22:25:08;53475.75;;;-138.23;90.22
13434;BME280;6789;47.678;9.158;2024-01-27T22:30:01;53467.72;;;-138.23;90.12
13434;BME280;6789;47.678;9.158;2024-01-27T22:34:53;53461.69;;;-138.23;90.03
13434;BME280;6789;47.678;9.158;2024-01-27T22:39:46;53457.69;;;-138.23;88.93
13434;BME280;6789;47.678;9.158;2024-01-27T22:44:53;53421.53;;;-138.23;88.39
13434;BME280;6789;47.678;9.158;2024-01-27T23:37:54;53469.75;;;-138.23;93.77
